sensor_id;sensor_type;location;lat;lon;timestamp;P1;durP1;ratioP1;P2;durP2;ratioP2
71753;SDS011;59593;51.716;7.016;2023-02-15T00:01:24;33.43;;;24.10;;
71753;SDS011;59593;51.716;7.016;2023-02-15T00:03:50;36.53;;;23.60;;
71753;SDS011;59593;51.716;7.016;2023-02-15T00:06:16;35.73;;;25.47;;
71753;SDS011;59593;51.716;7.016;2023-02-15T00:08:42;36.67;;;25.60;;
71753;SDS011;59593;51.716;7.016;2023-02-15T00:11:08;37.93;;;24.00;;
71753;SDS011;59593;51.716;7.016;2023-02-15T00:13:39;36.73;;;23.50;;
71753;SDS011;59593;51.716;7.016;2023-02-15T00:16:09;33.97;;;22.63;;
71753;SDS011;59593;51.716;7.016;2023-02-15T00:18:35;34.03;;;24.60;;
71753;SDS011;59593;51.716;7.016;2023-02-15T00:21:05;33.90;;;22.97;;
71753;SDS011;59593;51.716;7.016;2023-02-15T00:23:33;32.77;;;21.67;;
71753;SDS011;59593;51.716;7.016;2023-02-15T00:28:30;30.07;;;19.57;;
71753;SDS011;59593;51.716;7.016;2023-02-15T00:31:02;29.40;;;19.93;;
71753;SDS011;59593;51.716;7.016;2023-02-15T00:33:32;29.43;;;19.70;;
71753;SDS011;59593;51.716;7.016;2023-02-15T00:35:58;28.87;;;19.73;;
71753;SDS011;59593;51.716;7.016;2023-02-15T00:38:25;27.93;;;18.17;;
71753;SDS011;59593;51.716;7.016;2023-02-15T00:40:53;30.17;;;18.87;;
71753;SDS011;59593;51.716;7.016;2023-02-15T00:43:23;33.10;;;19.93;;
71753;SDS011;59593;51.716;7.016;2023-02-15T00:45:49;26.07;;;19.30;;
71753;SDS011;59593;51.716;7.016;2023-02-15T00:48:15;33.90;;;22.20;;
71753;SDS011;59593;51.716;7.016;2023-02-15T00:50:41;32.47;;;20.47;;
71753;SDS011;59593;51.716;7.016;2023-02-15T00:53:06;29.57;;;20.53;;
71753;SDS011;59593;51.716;7.016;2023-02-15T00:55:32;29.83;;;21.33;;
71753;SDS011;59593;51.716;7.016;2023-02-15T00:57:58;30.23;;;20.00;;
71753;SDS011;59593;51.716;7.016;2023-02-15T01:00:23;27.13;;;20.20;;
71753;SDS011;59593;51.716;7.016;2023-02-15T01:02:49;28.70;;;20.23;;
71753;SDS011;59593;51.716;7.016;2023-02-15T01:05:14;29.77;;;20.33;;
71753;SDS011;59593;51.716;7.016;2023-02-15T01:07:40;27.33;;;18.47;;
71753;SDS011;59593;51.716;7.016;2023-02-15T01:10:06;30.10;;;20.33;;
71753;SDS011;59593;51.716;7.016;2023-02-15T01:12:32;28.97;;;19.97;;
71753;SDS011;59593;51.716;7.016;2023-02-15T01:14:58;28.40;;;19.10;;
71753;SDS011;59593;51.716;7.016;2023-02-15T01:17:24;28.13;;;19.37;;
71753;SDS011;59593;51.716;7.016;2023-02-15T01:19:49;25.47;;;18.60;;
71753;SDS011;59593;51.716;7.016;2023-02-15T01:22:16;25.93;;;18.53;;
71753;SDS011;59593;51.716;7.016;2023-02-15T01:24:42;25.20;;;17.53;;
71753;SDS011;59593;51.716;7.016;2023-02-15T01:27:08;26.47;;;18.07;;
71753;SDS011;59593;51.716;7.016;2023-02-15T01:29:33;25.20;;;17.90;;
71753;SDS011;59593;51.716;7.016;2023-02-15T01:31:59;26.87;;;19.03;;
71753;SDS011;59593;51.716;7.016;2023-02-15T01:34:24;27.27;;;18.23;;
71753;SDS011;59593;51.716;7.016;2023-02-15T01:36:50;28.33;;;19.00;;
71753;SDS011;59593;51.716;7.016;2023-02-15T01:39:15;26.13;;;18.30;;
71753;SDS011;59593;51.716;7.016;2023-02-15T01:41:41;30.83;;;18.53;;
71753;SDS011;59593;51.716;7.016;2023-02-15T01:47:10;25.43;;;18.27;;
71753;SDS011;59593;51.716;7.016;2023-02-15T01:49:40;24.17;;;17.83;;
71753;SDS011;59593;51.716;7.016;2023-02-15T01:52:07;24.43;;;17.17;;
71753;SDS011;59593;51.716;7.016;2023-02-15T01:54:35;24.10;;;17.53;;
71753;SDS011;59593;51.716;7.016;2023-02-15T01:57:05;25.10;;;17.37;;
71753;SDS011;59593;51.716;7.016;2023-02-15T01:59:37;23.40;;;17.03;;
71753;SDS011;59593;51.716;7.016;2023-02-15T02:02:06;27.73;;;17.80;;
71753;SDS011;59593;51.716;7.016;2023-02-15T02:04:41;25.90;;;17.17;;
71753;SDS011;59593;51.716;7.016;2023-02-15T02:07:12;25.83;;;16.17;;
71753;SDS011;59593;51.716;7.016;2023-02-15T02:10:07;23.73;;;17.00;;
71753;SDS011;59593;51.716;7.016;2023-02-15T02:13:01;24.17;;;16.83;;
71753;SDS011;59593;51.716;7.016;2023-02-15T02:15:58;26.20;;;17.10;;
71753;SDS011;59593;51.716;7.016;2023-02-15T02:35:30;26.10;;;17.20;;
71753;SDS011;59593;51.716;7.016;2023-02-15T02:38:34;23.93;;;17.13;;
71753;SDS011;59593;51.716;7.016;2023-02-15T02:44:43;27.50;;;17.40;;
71753;SDS011;59593;51.716;7.016;2023-02-15T02:47:40;23.63;;;16.30;;
71753;SDS011;59593;51.716;7.016;2023-02-15T02:50:38;24.43;;;16.93;;
71753;SDS011;59593;51.716;7.016;2023-02-15T02:53:30;23.07;;;17.07;;
71753;SDS011;59593;51.716;7.016;2023-02-15T02:55:59;21.23;;;15.53;;
71753;SDS011;59593;51.716;7.016;2023-02-15T02:58:38;23.37;;;16.47;;
71753;SDS011;59593;51.716;7.016;2023-02-15T03:01:15;21.50;;;15.43;;
71753;SDS011;59593;51.716;7.016;2023-02-15T03:03:48;24.80;;;16.60;;
71753;SDS011;59593;51.716;7.016;2023-02-15T03:06:38;24.63;;;17.10;;
71753;SDS011;59593;51.716;7.016;2023-02-15T03:09:17;26.27;;;16.63;;
71753;SDS011;59593;51.716;7.016;2023-02-15T03:11:59;22.47;;;15.10;;
71753;SDS011;59593;51.716;7.016;2023-02-15T03:14:26;26.30;;;17.00;;
71753;SDS011;59593;51.716;7.016;2023-02-15T03:16:52;23.57;;;15.93;;
71753;SDS011;59593;51.716;7.016;2023-02-15T03:19:27;23.23;;;16.03;;
71753;SDS011;59593;51.716;7.016;2023-02-15T03:21:56;23.87;;;16.03;;
71753;SDS011;59593;51.716;7.016;2023-02-15T03:24:59;23.00;;;15.87;;
71753;SDS011;59593;51.716;7.016;2023-02-15T03:27:22;23.30;;;16.30;;
71753;SDS011;59593;51.716;7.016;2023-02-15T03:29:53;20.90;;;15.33;;
71753;SDS011;59593;51.716;7.016;2023-02-15T03:32:21;22.97;;;15.90;;
71753;SDS011;59593;51.716;7.016;2023-02-15T03:34:49;22.37;;;15.33;;
71753;SDS011;59593;51.716;7.016;2023-02-15T03:37:18;22.67;;;15.40;;
71753;SDS011;59593;51.716;7.016;2023-02-15T03:46:30;24.33;;;15.70;;
71753;SDS011;59593;51.716;7.016;2023-02-15T03:49:13;25.30;;;15.37;;
71753;SDS011;59593;51.716;7.016;2023-02-15T03:51:46;23.00;;;15.67;;
71753;SDS011;59593;51.716;7.016;2023-02-15T03:54:14;23.03;;;16.33;;
71753;SDS011;59593;51.716;7.016;2023-02-15T03:57:03;21.77;;;15.50;;
71753;SDS011;59593;51.716;7.016;2023-02-15T03:59:58;23.33;;;15.57;;
71753;SDS011;59593;51.716;7.016;2023-02-15T04:05:37;23.10;;;15.93;;
71753;SDS011;59593;51.716;7.016;2023-02-15T04:08:04;23.27;;;15.10;;
71753;SDS011;59593;51.716;7.016;2023-02-15T04:10:30;23.33;;;15.37;;
71753;SDS011;59593;51.716;7.016;2023-02-15T04:13:14;22.93;;;15.87;;
71753;SDS011;59593;51.716;7.016;2023-02-15T04:15:39;25.50;;;16.33;;
71753;SDS011;59593;51.716;7.016;2023-02-15T04:18:23;21.80;;;15.00;;
71753;SDS011;59593;51.716;7.016;2023-02-15T04:21:08;23.03;;;16.10;;
71753;SDS011;59593;51.716;7.016;2023-02-15T04:23:52;24.97;;;16.20;;
71753;SDS011;59593;51.716;7.016;2023-02-15T04:26:36;26.57;;;17.63;;
71753;SDS011;59593;51.716;7.016;2023-02-15T04:29:01;32.40;;;20.97;;
71753;SDS011;59593;51.716;7.016;2023-02-15T04:31:27;37.43;;;23.23;;
71753;SDS011;59593;51.716;7.016;2023-02-15T04:33:52;41.27;;;25.53;;
71753;SDS011;59593;51.716;7.016;2023-02-15T04:36:18;48.57;;;29.87;;
71753;SDS011;59593;51.716;7.016;2023-02-15T04:38:43;48.47;;;29.40;;
71753;SDS011;59593;51.716;7.016;2023-02-15T04:41:09;38.60;;;24.73;;
71753;SDS011;59593;51.716;7.016;2023-02-15T04:43:37;31.60;;;21.30;;
71753;SDS011;59593;51.716;7.016;2023-02-15T04:46:02;24.13;;;16.70;;
71753;SDS011;59593;51.716;7.016;2023-02-15T04:48:28;23.77;;;15.93;;
71753;SDS011;59593;51.716;7.016;2023-02-15T04:50:54;22.70;;;15.80;;
71753;SDS011;59593;51.716;7.016;2023-02-15T04:53:19;22.83;;;16.23;;
71753;SDS011;59593;51.716;7.016;2023-02-15T04:55:45;23.60;;;16.17;;
71753;SDS011;59593;51.716;7.016;2023-02-15T04:58:11;24.07;;;16.77;;
71753;SDS011;59593;51.716;7.016;2023-02-15T05:00:36;28.47;;;18.33;;
71753;SDS011;59593;51.716;7.016;2023-02-15T05:03:02;35.80;;;23.97;;
71753;SDS011;59593;51.716;7.016;2023-02-15T05:05:28;32.17;;;22.13;;
71753;SDS011;59593;51.716;7.016;2023-02-15T05:07:53;28.97;;;19.50;;
71753;SDS011;59593;51.716;7.016;2023-02-15T05:10:19;26.63;;;18.30;;
71753;SDS011;59593;51.716;7.016;2023-02-15T05:12:45;35.00;;;23.33;;
71753;SDS011;59593;51.716;7.016;2023-02-15T05:15:10;40.03;;;27.23;;
71753;SDS011;59593;51.716;7.016;2023-02-15T05:17:36;34.67;;;24.60;;
71753;SDS011;59593;51.716;7.016;2023-02-15T05:20:02;30.83;;;20.10;;
71753;SDS011;59593;51.716;7.016;2023-02-15T05:22:28;29.33;;;19.23;;
71753;SDS011;59593;51.716;7.016;2023-02-15T05:24:54;31.20;;;21.20;;
71753;SDS011;59593;51.716;7.016;2023-02-15T05:27:38;27.73;;;18.90;;
71753;SDS011;59593;51.716;7.016;2023-02-15T05:30:27;24.73;;;16.80;;
71753;SDS011;59593;51.716;7.016;2023-02-15T05:32:52;25.00;;;17.40;;
71753;SDS011;59593;51.716;7.016;2023-02-15T05:35:18;27.70;;;17.40;;
71753;SDS011;59593;51.716;7.016;2023-02-15T05:37:44;23.60;;;17.13;;
71753;SDS011;59593;51.716;7.016;2023-02-15T05:40:09;27.50;;;18.30;;
71753;SDS011;59593;51.716;7.016;2023-02-15T05:42:35;25.73;;;16.93;;
71753;SDS011;59593;51.716;7.016;2023-02-15T05:45:01;22.77;;;16.57;;
71753;SDS011;59593;51.716;7.016;2023-02-15T05:47:28;24.07;;;16.53;;
71753;SDS011;59593;51.716;7.016;2023-02-15T05:49:54;24.90;;;16.60;;
71753;SDS011;59593;51.716;7.016;2023-02-15T05:52:19;24.23;;;15.67;;
71753;SDS011;59593;51.716;7.016;2023-02-15T05:54:45;24.73;;;17.53;;
71753;SDS011;59593;51.716;7.016;2023-02-15T05:57:11;24.70;;;16.27;;
71753;SDS011;59593;51.716;7.016;2023-02-15T05:59:36;25.70;;;17.33;;
71753;SDS011;59593;51.716;7.016;2023-02-15T06:02:02;24.33;;;17.03;;
71753;SDS011;59593;51.716;7.016;2023-02-15T06:04:27;26.80;;;17.70;;
71753;SDS011;59593;51.716;7.016;2023-02-15T06:06:53;26.77;;;18.13;;
71753;SDS011;59593;51.716;7.016;2023-02-15T06:09:18;26.70;;;16.60;;
71753;SDS011;59593;51.716;7.016;2023-02-15T06:11:44;25.93;;;17.47;;
71753;SDS011;59593;51.716;7.016;2023-02-15T06:14:10;28.20;;;18.07;;
71753;SDS011;59593;51.716;7.016;2023-02-15T06:16:36;31.00;;;18.83;;
71753;SDS011;59593;51.716;7.016;2023-02-15T06:19:02;27.47;;;18.53;;
71753;SDS011;59593;51.716;7.016;2023-02-15T06:21:29;27.07;;;19.00;;
71753;SDS011;59593;51.716;7.016;2023-02-15T06:23:55;31.87;;;20.60;;
71753;SDS011;59593;51.716;7.016;2023-02-15T06:26:20;30.27;;;20.10;;
71753;SDS011;59593;51.716;7.016;2023-02-15T06:28:46;34.30;;;22.83;;
71753;SDS011;59593;51.716;7.016;2023-02-15T06:31:11;32.57;;;21.97;;
71753;SDS011;59593;51.716;7.016;2023-02-15T06:33:37;34.60;;;22.07;;
71753;SDS011;59593;51.716;7.016;2023-02-15T06:36:03;35.83;;;22.13;;
71753;SDS011;59593;51.716;7.016;2023-02-15T06:38:29;33.13;;;21.87;;
71753;SDS011;59593;51.716;7.016;2023-02-15T06:40:55;33.73;;;21.50;;
71753;SDS011;59593;51.716;7.016;2023-02-15T06:43:21;33.83;;;21.07;;
71753;SDS011;59593;51.716;7.016;2023-02-15T06:45:46;33.30;;;21.23;;
71753;SDS011;59593;51.716;7.016;2023-02-15T06:48:12;32.93;;;21.70;;
71753;SDS011;59593;51.716;7.016;2023-02-15T06:50:38;36.37;;;23.03;;
71753;SDS011;59593;51.716;7.016;2023-02-15T06:53:04;36.37;;;23.93;;
71753;SDS011;59593;51.716;7.016;2023-02-15T06:55:30;35.93;;;24.30;;
71753;SDS011;59593;51.716;7.016;2023-02-15T06:58:03;38.57;;;23.37;;
71753;SDS011;59593;51.716;7.016;2023-02-15T07:00:28;35.77;;;23.00;;
71753;SDS011;59593;51.716;7.016;2023-02-15T07:02:54;35.77;;;23.00;;
71753;SDS011;59593;51.716;7.016;2023-02-15T07:05:22;31.13;;;21.10;;
71753;SDS011;59593;51.716;7.016;2023-02-15T07:07:55;36.87;;;21.57;;
71753;SDS011;59593;51.716;7.016;2023-02-15T07:10:22;32.63;;;21.97;;
71753;SDS011;59593;51.716;7.016;2023-02-15T07:12:48;45.97;;;29.77;;
71753;SDS011;59593;51.716;7.016;2023-02-15T07:15:17;62.73;;;35.40;;
71753;SDS011;59593;51.716;7.016;2023-02-15T07:17:46;50.57;;;30.90;;
71753;SDS011;59593;51.716;7.016;2023-02-15T07:20:13;38.07;;;24.63;;
71753;SDS011;59593;51.716;7.016;2023-02-15T07:22:43;37.07;;;24.33;;
71753;SDS011;59593;51.716;7.016;2023-02-15T07:25:10;38.03;;;24.93;;
71753;SDS011;59593;51.716;7.016;2023-02-15T07:27:36;38.37;;;23.90;;
71753;SDS011;59593;51.716;7.016;2023-02-15T07:30:03;39.10;;;23.70;;
71753;SDS011;59593;51.716;7.016;2023-02-15T07:32:30;39.63;;;24.97;;
71753;SDS011;59593;51.716;7.016;2023-02-15T07:34:57;37.50;;;24.03;;
71753;SDS011;59593;51.716;7.016;2023-02-15T07:37:23;36.20;;;23.03;;
71753;SDS011;59593;51.716;7.016;2023-02-15T07:39:50;37.93;;;23.30;;
71753;SDS011;59593;51.716;7.016;2023-02-15T07:42:15;33.13;;;22.93;;
71753;SDS011;59593;51.716;7.016;2023-02-15T07:44:42;37.67;;;22.70;;
71753;SDS011;59593;51.716;7.016;2023-02-15T07:47:08;33.23;;;22.43;;
71753;SDS011;59593;51.716;7.016;2023-02-15T07:49:34;35.07;;;22.97;;
71753;SDS011;59593;51.716;7.016;2023-02-15T07:52:00;35.83;;;23.67;;
71753;SDS011;59593;51.716;7.016;2023-02-15T07:54:26;32.93;;;22.00;;
71753;SDS011;59593;51.716;7.016;2023-02-15T07:56:52;34.20;;;22.60;;
71753;SDS011;59593;51.716;7.016;2023-02-15T07:59:18;34.23;;;22.37;;
71753;SDS011;59593;51.716;7.016;2023-02-15T08:01:43;31.53;;;21.90;;
71753;SDS011;59593;51.716;7.016;2023-02-15T08:04:09;37.57;;;23.40;;
71753;SDS011;59593;51.716;7.016;2023-02-15T08:06:36;37.13;;;23.77;;
71753;SDS011;59593;51.716;7.016;2023-02-15T08:09:06;36.20;;;25.17;;
71753;SDS011;59593;51.716;7.016;2023-02-15T08:11:34;39.77;;;27.60;;
71753;SDS011;59593;51.716;7.016;2023-02-15T08:14:06;53.20;;;34.10;;
71753;SDS011;59593;51.716;7.016;2023-02-15T08:16:55;53.87;;;33.83;;
71753;SDS011;59593;51.716;7.016;2023-02-15T08:19:25;46.80;;;32.93;;
71753;SDS011;59593;51.716;7.016;2023-02-15T08:22:03;46.10;;;31.60;;
71753;SDS011;59593;51.716;7.016;2023-02-15T08:24:31;47.40;;;31.57;;
71753;SDS011;59593;51.716;7.016;2023-02-15T08:26:58;56.70;;;36.90;;
71753;SDS011;59593;51.716;7.016;2023-02-15T08:29:24;53.03;;;34.40;;
71753;SDS011;59593;51.716;7.016;2023-02-15T08:32:02;53.90;;;33.67;;
71753;SDS011;59593;51.716;7.016;2023-02-15T08:34:34;52.13;;;33.83;;
71753;SDS011;59593;51.716;7.016;2023-02-15T08:37:01;51.30;;;33.10;;
71753;SDS011;59593;51.716;7.016;2023-02-15T08:39:27;51.03;;;31.53;;
71753;SDS011;59593;51.716;7.016;2023-02-15T08:41:53;45.53;;;30.17;;
71753;SDS011;59593;51.716;7.016;2023-02-15T08:44:19;43.27;;;29.37;;
71753;SDS011;59593;51.716;7.016;2023-02-15T08:46:45;42.40;;;28.80;;
71753;SDS011;59593;51.716;7.016;2023-02-15T08:49:13;44.37;;;29.40;;
71753;SDS011;59593;51.716;7.016;2023-02-15T08:51:43;40.60;;;28.33;;
71753;SDS011;59593;51.716;7.016;2023-02-15T08:54:10;44.40;;;29.03;;
71753;SDS011;59593;51.716;7.016;2023-02-15T08:56:39;43.70;;;28.60;;
71753;SDS011;59593;51.716;7.016;2023-02-15T08:59:07;47.50;;;29.40;;
71753;SDS011;59593;51.716;7.016;2023-02-15T09:01:37;46.70;;;29.47;;
71753;SDS011;59593;51.716;7.016;2023-02-15T09:04:04;44.73;;;29.47;;
71753;SDS011;59593;51.716;7.016;2023-02-15T09:06:33;45.40;;;29.03;;
71753;SDS011;59593;51.716;7.016;2023-02-15T09:08:59;44.10;;;29.23;;
71753;SDS011;59593;51.716;7.016;2023-02-15T09:11:29;40.73;;;28.43;;
71753;SDS011;59593;51.716;7.016;2023-02-15T09:13:56;43.40;;;29.70;;
71753;SDS011;59593;51.716;7.016;2023-02-15T09:16:24;40.80;;;28.50;;
71753;SDS011;59593;51.716;7.016;2023-02-15T09:18:51;44.20;;;29.70;;
71753;SDS011;59593;51.716;7.016;2023-02-15T09:21:18;40.50;;;29.23;;
71753;SDS011;59593;51.716;7.016;2023-02-15T09:23:47;44.63;;;29.10;;
71753;SDS011;59593;51.716;7.016;2023-02-15T09:26:21;43.10;;;28.63;;
71753;SDS011;59593;51.716;7.016;2023-02-15T09:28:50;45.50;;;29.33;;
71753;SDS011;59593;51.716;7.016;2023-02-15T09:31:19;43.33;;;29.27;;
71753;SDS011;59593;51.716;7.016;2023-02-15T09:33:46;41.10;;;29.50;;
71753;SDS011;59593;51.716;7.016;2023-02-15T09:36:22;42.83;;;28.97;;
71753;SDS011;59593;51.716;7.016;2023-02-15T09:38:56;42.17;;;28.17;;
71753;SDS011;59593;51.716;7.016;2023-02-15T09:46:59;41.23;;;28.50;;
71753;SDS011;59593;51.716;7.016;2023-02-15T09:49:34;41.70;;;28.00;;
71753;SDS011;59593;51.716;7.016;2023-02-15T10:14:25;42.23;;;26.83;;
71753;SDS011;59593;51.716;7.016;2023-02-15T10:28:23;39.13;;;26.60;;
71753;SDS011;59593;51.716;7.016;2023-02-15T10:30:56;40.90;;;26.63;;
71753;SDS011;59593;51.716;7.016;2023-02-15T10:33:52;40.00;;;25.87;;
71753;SDS011;59593;51.716;7.016;2023-02-15T10:50:45;36.30;;;26.00;;
71753;SDS011;59593;51.716;7.016;2023-02-15T10:56:17;37.00;;;24.43;;
71753;SDS011;59593;51.716;7.016;2023-02-15T11:01:55;34.33;;;23.53;;
71753;SDS011;59593;51.716;7.016;2023-02-15T11:09:49;35.60;;;25.50;;
71753;SDS011;59593;51.716;7.016;2023-02-15T11:12:26;33.23;;;22.63;;
71753;SDS011;59593;51.716;7.016;2023-02-15T11:14:58;39.90;;;24.40;;
71753;SDS011;59593;51.716;7.016;2023-02-15T11:17:41;33.67;;;23.47;;
71753;SDS011;59593;51.716;7.016;2023-02-15T11:20:25;34.77;;;22.33;;
71753;SDS011;59593;51.716;7.016;2023-02-15T11:22:55;32.40;;;22.13;;
71753;SDS011;59593;51.716;7.016;2023-02-15T11:25:28;31.67;;;21.67;;
71753;SDS011;59593;51.716;7.016;2023-02-15T11:27:56;32.33;;;21.20;;
71753;SDS011;59593;51.716;7.016;2023-02-15T11:30:23;30.67;;;21.23;;
71753;SDS011;59593;51.716;7.016;2023-02-15T11:32:55;33.57;;;20.83;;
71753;SDS011;59593;51.716;7.016;2023-02-15T11:35:36;31.40;;;20.60;;
71753;SDS011;59593;51.716;7.016;2023-02-15T11:38:24;29.33;;;20.33;;
71753;SDS011;59593;51.716;7.016;2023-02-15T11:40:55;29.57;;;19.83;;
71753;SDS011;59593;51.716;7.016;2023-02-15T11:43:34;29.17;;;19.23;;
71753;SDS011;59593;51.716;7.016;2023-02-15T11:46:04;31.83;;;19.13;;
71753;SDS011;59593;51.716;7.016;2023-02-15T11:48:31;25.87;;;17.63;;
71753;SDS011;59593;51.716;7.016;2023-02-15T11:50:57;25.80;;;18.43;;
71753;SDS011;59593;51.716;7.016;2023-02-15T11:53:24;28.97;;;18.50;;
71753;SDS011;59593;51.716;7.016;2023-02-15T11:55:54;28.57;;;18.77;;
71753;SDS011;59593;51.716;7.016;2023-02-15T11:58:30;27.80;;;18.33;;
71753;SDS011;59593;51.716;7.016;2023-02-15T12:01:16;30.80;;;18.63;;
71753;SDS011;59593;51.716;7.016;2023-02-15T12:11:49;26.20;;;16.97;;
71753;SDS011;59593;51.716;7.016;2023-02-15T12:14:14;25.60;;;17.60;;
71753;SDS011;59593;51.716;7.016;2023-02-15T12:21:54;23.10;;;15.33;;
71753;SDS011;59593;51.716;7.016;2023-02-15T12:24:34;25.10;;;16.47;;
71753;SDS011;59593;51.716;7.016;2023-02-15T12:27:03;27.17;;;16.70;;
71753;SDS011;59593;51.716;7.016;2023-02-15T12:29:42;26.13;;;16.27;;
71753;SDS011;59593;51.716;7.016;2023-02-15T12:35:30;22.95;;;15.70;;
71753;SDS011;59593;51.716;7.016;2023-02-15T12:40:28;21.10;;;14.90;;
71753;SDS011;59593;51.716;7.016;2023-02-15T12:42:54;22.98;;;14.88;;
71753;SDS011;59593;51.716;7.016;2023-02-15T12:45:22;23.45;;;15.52;;
71753;SDS011;59593;51.716;7.016;2023-02-15T12:48:35;21.38;;;15.25;;
71753;SDS011;59593;51.716;7.016;2023-02-15T12:50:46;22.90;;;15.18;;
71753;SDS011;59593;51.716;7.016;2023-02-15T12:55:53;20.83;;;14.15;;
71753;SDS011;59593;51.716;7.016;2023-02-15T12:58:22;24.10;;;14.25;;
71753;SDS011;59593;51.716;7.016;2023-02-15T13:01:32;22.52;;;15.02;;
71753;SDS011;59593;51.716;7.016;2023-02-15T13:06:26;24.70;;;15.35;;
71753;SDS011;59593;51.716;7.016;2023-02-15T13:08:54;24.77;;;15.57;;
71753;SDS011;59593;51.716;7.016;2023-02-15T13:11:30;22.90;;;13.98;;
71753;SDS011;59593;51.716;7.016;2023-02-15T13:14:03;21.95;;;14.45;;
71753;SDS011;59593;51.716;7.016;2023-02-15T13:17:00;25.23;;;14.27;;
71753;SDS011;59593;51.716;7.016;2023-02-15T13:21:58;25.65;;;14.85;;
71753;SDS011;59593;51.716;7.016;2023-02-15T13:24:41;26.40;;;15.50;;
71753;SDS011;59593;51.716;7.016;2023-02-15T13:27:12;25.23;;;15.00;;
71753;SDS011;59593;51.716;7.016;2023-02-15T13:29:43;24.20;;;15.05;;
71753;SDS011;59593;51.716;7.016;2023-02-15T13:34:52;23.90;;;15.00;;
71753;SDS011;59593;51.716;7.016;2023-02-15T13:40:36;27.35;;;16.73;;
71753;SDS011;59593;51.716;7.016;2023-02-15T13:52:24;26.10;;;16.00;;
71753;SDS011;59593;51.716;7.016;2023-02-15T13:55:02;28.98;;;16.42;;
71753;SDS011;59593;51.716;7.016;2023-02-15T13:57:59;23.48;;;15.75;;
71753;SDS011;59593;51.716;7.016;2023-02-15T14:00:43;23.30;;;15.30;;
71753;SDS011;59593;51.716;7.016;2023-02-15T14:03:45;25.90;;;15.35;;
71753;SDS011;59593;51.716;7.016;2023-02-15T14:11:47;25.77;;;15.20;;
71753;SDS011;59593;51.716;7.016;2023-02-15T14:17:21;25.35;;;15.95;;
71753;SDS011;59593;51.716;7.016;2023-02-15T14:20:01;23.85;;;14.60;;
71753;SDS011;59593;51.716;7.016;2023-02-15T14:25:02;25.27;;;14.70;;
71753;SDS011;59593;51.716;7.016;2023-02-15T14:27:54;25.90;;;15.48;;
71753;SDS011;59593;51.716;7.016;2023-02-15T14:30:31;28.30;;;15.88;;
71753;SDS011;59593;51.716;7.016;2023-02-15T14:33:04;25.13;;;15.60;;
71753;SDS011;59593;51.716;7.016;2023-02-15T14:35:54;22.13;;;14.95;;
71753;SDS011;59593;51.716;7.016;2023-02-15T14:51:55;25.38;;;15.93;;
71753;SDS011;59593;51.716;7.016;2023-02-15T14:59:36;25.20;;;16.50;;
71753;SDS011;59593;51.716;7.016;2023-02-15T15:02:17;26.70;;;15.52;;
71753;SDS011;59593;51.716;7.016;2023-02-15T15:07:42;28.33;;;16.17;;
71753;SDS011;59593;51.716;7.016;2023-02-15T15:12:43;27.30;;;16.15;;
71753;SDS011;59593;51.716;7.016;2023-02-15T15:50:44;26.85;;;17.05;;
71753;SDS011;59593;51.716;7.016;2023-02-15T15:53:20;30.40;;;17.23;;
71753;SDS011;59593;51.716;7.016;2023-02-15T15:55:48;28.02;;;16.63;;
71753;SDS011;59593;51.716;7.016;2023-02-15T15:58:20;26.60;;;16.73;;
71753;SDS011;59593;51.716;7.016;2023-02-15T16:00:48;28.42;;;16.80;;
71753;SDS011;59593;51.716;7.016;2023-02-15T16:03:52;28.83;;;16.38;;
71753;SDS011;59593;51.716;7.016;2023-02-15T16:09:11;28.02;;;15.75;;
71753;SDS011;59593;51.716;7.016;2023-02-15T16:11:36;29.45;;;16.13;;
71753;SDS011;59593;51.716;7.016;2023-02-15T16:14:08;29.10;;;17.02;;
71753;SDS011;59593;51.716;7.016;2023-02-15T16:16:37;28.40;;;17.38;;
71753;SDS011;59593;51.716;7.016;2023-02-15T16:19:03;29.17;;;17.40;;
71753;SDS011;59593;51.716;7.016;2023-02-15T16:21:33;29.30;;;17.27;;
71753;SDS011;59593;51.716;7.016;2023-02-15T16:24:12;29.27;;;17.33;;
71753;SDS011;59593;51.716;7.016;2023-02-15T16:27:10;30.60;;;18.25;;
71753;SDS011;59593;51.716;7.016;2023-02-15T16:29:38;33.30;;;19.45;;
71753;SDS011;59593;51.716;7.016;2023-02-15T16:32:05;30.35;;;17.70;;
71753;SDS011;59593;51.716;7.016;2023-02-15T16:34:49;29.73;;;17.92;;
71753;SDS011;59593;51.716;7.016;2023-02-15T16:37:18;28.35;;;17.83;;
71753;SDS011;59593;51.716;7.016;2023-02-15T16:39:47;28.13;;;17.40;;
71753;SDS011;59593;51.716;7.016;2023-02-15T16:42:16;30.52;;;18.15;;
71753;SDS011;59593;51.716;7.016;2023-02-15T16:44:43;30.80;;;19.55;;
71753;SDS011;59593;51.716;7.016;2023-02-15T16:47:18;29.75;;;18.33;;
71753;SDS011;59593;51.716;7.016;2023-02-15T16:49:48;27.60;;;18.80;;
71753;SDS011;59593;51.716;7.016;2023-02-15T16:52:19;30.73;;;19.70;;
71753;SDS011;59593;51.716;7.016;2023-02-15T16:54:48;29.83;;;19.10;;
71753;SDS011;59593;51.716;7.016;2023-02-15T16:57:30;30.38;;;19.15;;
71753;SDS011;59593;51.716;7.016;2023-02-15T17:00:14;32.73;;;19.23;;
71753;SDS011;59593;51.716;7.016;2023-02-15T17:02:55;32.00;;;19.23;;
71753;SDS011;59593;51.716;7.016;2023-02-15T17:05:33;34.53;;;20.03;;
71753;SDS011;59593;51.716;7.016;2023-02-15T17:08:10;31.37;;;19.27;;
71753;SDS011;59593;51.716;7.016;2023-02-15T17:11:03;30.77;;;19.90;;
71753;SDS011;59593;51.716;7.016;2023-02-15T17:13:29;33.03;;;18.90;;
71753;SDS011;59593;51.716;7.016;2023-02-15T17:18:24;30.70;;;18.83;;
71753;SDS011;59593;51.716;7.016;2023-02-15T17:21:12;29.93;;;18.23;;
71753;SDS011;59593;51.716;7.016;2023-02-15T17:23:42;31.00;;;18.97;;
71753;SDS011;59593;51.716;7.016;2023-02-15T17:26:18;32.43;;;19.47;;
71753;SDS011;59593;51.716;7.016;2023-02-15T17:28:45;29.03;;;18.07;;
71753;SDS011;59593;51.716;7.016;2023-02-15T17:31:14;35.67;;;19.33;;
71753;SDS011;59593;51.716;7.016;2023-02-15T17:33:42;31.33;;;19.37;;
71753;SDS011;59593;51.716;7.016;2023-02-15T17:36:16;34.30;;;19.70;;
71753;SDS011;59593;51.716;7.016;2023-02-15T17:41:25;32.30;;;18.83;;
71753;SDS011;59593;51.716;7.016;2023-02-15T17:43:53;29.70;;;18.73;;
71753;SDS011;59593;51.716;7.016;2023-02-15T17:46:18;31.83;;;18.83;;
71753;SDS011;59593;51.716;7.016;2023-02-15T17:48:47;31.60;;;17.97;;
71753;SDS011;59593;51.716;7.016;2023-02-15T17:51:15;32.63;;;18.40;;
71753;SDS011;59593;51.716;7.016;2023-02-15T17:53:41;29.47;;;17.40;;
71753;SDS011;59593;51.716;7.016;2023-02-15T17:56:31;32.00;;;17.87;;
71753;SDS011;59593;51.716;7.016;2023-02-15T17:58:57;31.30;;;18.07;;
71753;SDS011;59593;51.716;7.016;2023-02-15T18:01:23;28.10;;;17.97;;
71753;SDS011;59593;51.716;7.016;2023-02-15T18:04:07;32.67;;;17.97;;
71753;SDS011;59593;51.716;7.016;2023-02-15T18:06:54;31.30;;;19.57;;
71753;SDS011;59593;51.716;7.016;2023-02-15T18:09:38;37.83;;;22.37;;
71753;SDS011;59593;51.716;7.016;2023-02-15T18:12:24;29.67;;;18.87;;
71753;SDS011;59593;51.716;7.016;2023-02-15T18:14:58;27.33;;;16.33;;
71753;SDS011;59593;51.716;7.016;2023-02-15T18:17:36;27.93;;;16.60;;
71753;SDS011;59593;51.716;7.016;2023-02-15T18:20:06;27.13;;;17.47;;
71753;SDS011;59593;51.716;7.016;2023-02-15T18:22:42;31.67;;;18.17;;
71753;SDS011;59593;51.716;7.016;2023-02-15T18:25:14;27.27;;;17.00;;
71753;SDS011;59593;51.716;7.016;2023-02-15T18:27:41;25.57;;;17.13;;